sensor_id;sensor_type;location;lat;lon;timestamp;P1;durP1;ratioP1;P2;durP2;ratioP2
23496;SDS011;11925;48.122;11.560;2022-12-29T00:01:11;2.42;;;1.23;;
23496;SDS011;11925;48.122;11.560;2022-12-29T00:03:40;4.10;;;1.58;;
23496;SDS011;11925;48.122;11.560;2022-12-29T00:06:09;2.20;;;1.30;;
23496;SDS011;11925;48.122;11.560;2022-12-29T00:08:37;2.47;;;1.50;;
23496;SDS011;11925;48.122;11.560;2022-12-29T00:11:10;2.63;;;1.58;;
23496;SDS011;11925;48.122;11.560;2022-12-29T00:13:41;2.50;;;1.30;;
23496;SDS011;11925;48.122;11.560;2022-12-29T00:16:27;3.13;;;1.50;;
23496;SDS011;11925;48.122;11.560;2022-12-29T00:18:55;3.40;;;1.30;;
23496;SDS011;11925;48.122;11.560;2022-12-29T00:21:24;1.85;;;1.10;;
23496;SDS011;11925;48.122;11.560;2022-12-29T00:24:12;3.33;;;1.23;;
23496;SDS011;11925;48.122;11.560;2022-12-29T00:27:07;2.40;;;1.23;;
23496;SDS011;11925;48.122;11.560;2022-12-29T00:29:53;2.08;;;1.40;;
23496;SDS011;11925;48.122;11.560;2022-12-29T00:32:39;2.67;;;1.42;;
23496;SDS011;11925;48.122;11.560;2022-12-29T00:35:28;2.55;;;1.20;;
23496;SDS011;11925;48.122;11.560;2022-12-29T00:37:58;2.20;;;1.38;;
23496;SDS011;11925;48.122;11.560;2022-12-29T00:40:48;1.90;;;1.35;;
23496;SDS011;11925;48.122;11.560;2022-12-29T00:43:34;2.05;;;1.20;;
23496;SDS011;11925;48.122;11.560;2022-12-29T00:46:21;1.73;;;1.02;;
23496;SDS011;11925;48.122;11.560;2022-12-29T00:48:50;3.00;;;1.15;;
23496;SDS011;11925;48.122;11.560;2022-12-29T00:51:36;2.50;;;1.35;;
23496;SDS011;11925;48.122;11.560;2022-12-29T00:54:04;2.10;;;1.45;;
23496;SDS011;11925;48.122;11.560;2022-12-29T00:56:33;2.05;;;1.08;;
23496;SDS011;11925;48.122;11.560;2022-12-29T00:59:01;2.25;;;1.10;;
23496;SDS011;11925;48.122;11.560;2022-12-29T01:01:32;2.15;;;1.10;;
23496;SDS011;11925;48.122;11.560;2022-12-29T01:04:02;2.28;;;1.30;;
23496;SDS011;11925;48.122;11.560;2022-12-29T01:06:30;2.45;;;1.30;;
23496;SDS011;11925;48.122;11.560;2022-12-29T01:08:59;1.50;;;0.93;;
23496;SDS011;11925;48.122;11.560;2022-12-29T01:11:46;3.53;;;1.02;;
23496;SDS011;11925;48.122;11.560;2022-12-29T01:14:15;2.13;;;1.10;;
23496;SDS011;11925;48.122;11.560;2022-12-29T01:16:45;2.38;;;1.40;;
23496;SDS011;11925;48.122;11.560;2022-12-29T01:19:15;2.53;;;1.00;;
23496;SDS011;11925;48.122;11.560;2022-12-29T01:21:44;2.70;;;1.10;;
23496;SDS011;11925;48.122;11.560;2022-12-29T01:24:12;2.33;;;0.90;;
23496;SDS011;11925;48.122;11.560;2022-12-29T01:26:42;2.03;;;0.90;;
23496;SDS011;11925;48.122;11.560;2022-12-29T01:29:10;1.30;;;1.00;;
23496;SDS011;11925;48.122;11.560;2022-12-29T01:31:39;2.78;;;1.02;;
23496;SDS011;11925;48.122;11.560;2022-12-29T01:34:09;1.25;;;0.77;;
23496;SDS011;11925;48.122;11.560;2022-12-29T01:36:38;1.67;;;1.00;;
23496;SDS011;11925;48.122;11.560;2022-12-29T01:39:06;1.60;;;0.75;;
23496;SDS011;11925;48.122;11.560;2022-12-29T01:41:34;1.85;;;0.90;;
23496;SDS011;11925;48.122;11.560;2022-12-29T01:47:06;2.15;;;0.88;;
23496;SDS011;11925;48.122;11.560;2022-12-29T01:52:06;3.08;;;0.90;;
23496;SDS011;11925;48.122;11.560;2022-12-29T01:54:36;2.65;;;0.98;;
23496;SDS011;11925;48.122;11.560;2022-12-29T01:57:08;8.80;;;1.50;;
23496;SDS011;11925;48.122;11.560;2022-12-29T01:59:45;2.35;;;0.90;;
23496;SDS011;11925;48.122;11.560;2022-12-29T02:02:18;1.48;;;0.90;;
23496;SDS011;11925;48.122;11.560;2022-12-29T02:04:48;2.40;;;0.63;;
23496;SDS011;11925;48.122;11.560;2022-12-29T02:07:18;2.03;;;0.70;;
23496;SDS011;11925;48.122;11.560;2022-12-29T02:09:49;1.58;;;0.85;;
23496;SDS011;11925;48.122;11.560;2022-12-29T02:12:20;1.85;;;0.77;;
23496;SDS011;11925;48.122;11.560;2022-12-29T02:14:51;1.65;;;0.70;;
23496;SDS011;11925;48.122;11.560;2022-12-29T02:17:26;3.08;;;0.75;;
23496;SDS011;11925;48.122;11.560;2022-12-29T02:20:15;2.13;;;0.73;;
23496;SDS011;11925;48.122;11.560;2022-12-29T02:23:05;2.22;;;0.80;;
23496;SDS011;11925;48.122;11.560;2022-12-29T02:26:02;1.30;;;0.73;;
23496;SDS011;11925;48.122;11.560;2022-12-29T02:28:52;1.25;;;0.80;;
23496;SDS011;11925;48.122;11.560;2022-12-29T02:31:33;0.98;;;0.60;;
23496;SDS011;11925;48.122;11.560;2022-12-29T02:34:11;1.13;;;0.85;;
23496;SDS011;11925;48.122;11.560;2022-12-29T02:39:27;1.00;;;0.43;;
23496;SDS011;11925;48.122;11.560;2022-12-29T02:42:03;2.25;;;0.93;;
23496;SDS011;11925;48.122;11.560;2022-12-29T02:44:42;2.03;;;0.63;;
23496;SDS011;11925;48.122;11.560;2022-12-29T02:47:20;1.80;;;0.77;;
23496;SDS011;11925;48.122;11.560;2022-12-29T02:49:54;1.55;;;0.70;;
23496;SDS011;11925;48.122;11.560;2022-12-29T02:52:30;0.98;;;0.77;;
23496;SDS011;11925;48.122;11.560;2022-12-29T02:55:03;1.88;;;0.70;;
23496;SDS011;11925;48.122;11.560;2022-12-29T02:57:32;1.23;;;0.70;;
23496;SDS011;11925;48.122;11.560;2022-12-29T03:00:03;1.23;;;0.88;;
23496;SDS011;11925;48.122;11.560;2022-12-29T03:02:39;0.93;;;0.60;;
23496;SDS011;11925;48.122;11.560;2022-12-29T03:05:25;0.77;;;0.57;;
23496;SDS011;11925;48.122;11.560;2022-12-29T03:08:16;2.30;;;0.80;;
23496;SDS011;11925;48.122;11.560;2022-12-29T03:10:54;1.85;;;0.80;;
23496;SDS011;11925;48.122;11.560;2022-12-29T03:13:32;1.10;;;0.60;;
23496;SDS011;11925;48.122;11.560;2022-12-29T03:16:23;1.38;;;0.60;;
23496;SDS011;11925;48.122;11.560;2022-12-29T03:19:02;1.00;;;0.57;;
23496;SDS011;11925;48.122;11.560;2022-12-29T03:21:36;2.88;;;0.70;;
23496;SDS011;11925;48.122;11.560;2022-12-29T03:24:26;1.35;;;0.60;;
23496;SDS011;11925;48.122;11.560;2022-12-29T03:26:58;1.25;;;0.70;;
23496;SDS011;11925;48.122;11.560;2022-12-29T03:29:35;1.20;;;0.70;;
23496;SDS011;11925;48.122;11.560;2022-12-29T03:32:07;0.65;;;0.40;;
23496;SDS011;11925;48.122;11.560;2022-12-29T03:34:41;0.90;;;0.60;;
23496;SDS011;11925;48.122;11.560;2022-12-29T03:37:09;1.38;;;0.60;;
23496;SDS011;11925;48.122;11.560;2022-12-29T03:39:44;1.15;;;0.60;;
23496;SDS011;11925;48.122;11.560;2022-12-29T03:42:16;1.27;;;0.70;;
23496;SDS011;11925;48.122;11.560;2022-12-29T03:44:47;1.23;;;0.50;;
23496;SDS011;11925;48.122;11.560;2022-12-29T03:47:17;2.08;;;0.60;;
23496;SDS011;11925;48.122;11.560;2022-12-29T03:49:47;1.35;;;0.50;;
23496;SDS011;11925;48.122;11.560;2022-12-29T03:52:17;1.20;;;0.60;;
23496;SDS011;11925;48.122;11.560;2022-12-29T03:54:46;1.30;;;0.50;;
23496;SDS011;11925;48.122;11.560;2022-12-29T03:57:15;1.65;;;0.70;;
23496;SDS011;11925;48.122;11.560;2022-12-29T03:59:56;1.25;;;0.60;;
23496;SDS011;11925;48.122;11.560;2022-12-29T04:02:28;0.85;;;0.50;;
23496;SDS011;11925;48.122;11.560;2022-12-29T04:04:58;2.28;;;0.70;;
23496;SDS011;11925;48.122;11.560;2022-12-29T04:07:26;1.00;;;0.50;;
23496;SDS011;11925;48.122;11.560;2022-12-29T04:09:56;1.20;;;0.55;;
23496;SDS011;11925;48.122;11.560;2022-12-29T04:12:26;1.23;;;0.50;;
23496;SDS011;11925;48.122;11.560;2022-12-29T04:14:55;2.60;;;0.60;;
23496;SDS011;11925;48.122;11.560;2022-12-29T04:17:24;0.93;;;0.60;;
23496;SDS011;11925;48.122;11.560;2022-12-29T04:19:53;1.00;;;0.50;;
23496;SDS011;11925;48.122;11.560;2022-12-29T04:22:43;1.02;;;0.60;;
23496;SDS011;11925;48.122;11.560;2022-12-29T04:25:12;1.23;;;0.60;;
23496;SDS011;11925;48.122;11.560;2022-12-29T04:27:41;1.35;;;0.68;;
23496;SDS011;11925;48.122;11.560;2022-12-29T04:30:31;1.08;;;0.75;;
23496;SDS011;11925;48.122;11.560;2022-12-29T04:33:08;0.60;;;0.50;;
23496;SDS011;11925;48.122;11.560;2022-12-29T04:35:38;0.93;;;0.50;;
23496;SDS011;11925;48.122;11.560;2022-12-29T04:38:08;0.90;;;0.50;;
23496;SDS011;11925;48.122;11.560;2022-12-29T04:40:38;1.05;;;0.65;;
23496;SDS011;11925;48.122;11.560;2022-12-29T04:43:08;0.88;;;0.57;;
23496;SDS011;11925;48.122;11.560;2022-12-29T04:46:08;1.75;;;0.50;;
23496;SDS011;11925;48.122;11.560;2022-12-29T04:48:46;1.10;;;0.50;;
23496;SDS011;11925;48.122;11.560;2022-12-29T04:51:33;0.55;;;0.40;;
23496;SDS011;11925;48.122;11.560;2022-12-29T04:54:04;2.47;;;0.60;;
23496;SDS011;11925;48.122;11.560;2022-12-29T04:56:34;0.80;;;0.60;;
23496;SDS011;11925;48.122;11.560;2022-12-29T04:59:03;1.70;;;0.60;;
23496;SDS011;11925;48.122;11.560;2022-12-29T05:01:33;0.82;;;0.50;;
23496;SDS011;11925;48.122;11.560;2022-12-29T05:04:02;0.50;;;0.50;;
23496;SDS011;11925;48.122;11.560;2022-12-29T05:06:31;0.75;;;0.50;;
23496;SDS011;11925;48.122;11.560;2022-12-29T05:09:00;0.80;;;0.40;;
23496;SDS011;11925;48.122;11.560;2022-12-29T05:11:30;0.88;;;0.60;;
23496;SDS011;11925;48.122;11.560;2022-12-29T05:14:00;0.80;;;0.60;;
23496;SDS011;11925;48.122;11.560;2022-12-29T05:16:29;1.55;;;0.77;;
23496;SDS011;11925;48.122;11.560;2022-12-29T05:18:58;1.65;;;0.70;;
23496;SDS011;11925;48.122;11.560;2022-12-29T05:21:27;1.10;;;0.68;;
23496;SDS011;11925;48.122;11.560;2022-12-29T05:23:57;1.95;;;0.70;;
23496;SDS011;11925;48.122;11.560;2022-12-29T05:26:27;1.73;;;0.73;;
23496;SDS011;11925;48.122;11.560;2022-12-29T05:29:17;1.05;;;0.75;;
23496;SDS011;11925;48.122;11.560;2022-12-29T05:31:46;0.80;;;0.50;;
23496;SDS011;11925;48.122;11.560;2022-12-29T05:34:15;1.85;;;0.75;;
23496;SDS011;11925;48.122;11.560;2022-12-29T05:36:44;2.03;;;0.90;;
23496;SDS011;11925;48.122;11.560;2022-12-29T05:39:14;0.82;;;0.63;;
23496;SDS011;11925;48.122;11.560;2022-12-29T05:41:47;1.38;;;0.82;;
23496;SDS011;11925;48.122;11.560;2022-12-29T05:44:28;1.75;;;0.70;;
23496;SDS011;11925;48.122;11.560;2022-12-29T05:50:08;1.30;;;0.60;;
23496;SDS011;11925;48.122;11.560;2022-12-29T05:53:15;1.75;;;0.60;;
23496;SDS011;11925;48.122;11.560;2022-12-29T05:55:46;1.27;;;0.70;;
23496;SDS011;11925;48.122;11.560;2022-12-29T05:58:16;1.83;;;0.70;;
23496;SDS011;11925;48.122;11.560;2022-12-29T06:00:47;1.15;;;0.65;;
23496;SDS011;11925;48.122;11.560;2022-12-29T06:03:15;0.82;;;0.60;;
23496;SDS011;11925;48.122;11.560;2022-12-29T06:05:46;1.92;;;0.65;;
23496;SDS011;11925;48.122;11.560;2022-12-29T06:08:15;1.02;;;0.50;;
23496;SDS011;11925;48.122;11.560;2022-12-29T06:10:44;1.75;;;0.60;;
23496;SDS011;11925;48.122;11.560;2022-12-29T06:13:13;1.15;;;0.70;;
23496;SDS011;11925;48.122;11.560;2022-12-29T06:15:44;2.30;;;0.70;;
23496;SDS011;11925;48.122;11.560;2022-12-29T06:18:14;1.27;;;0.60;;
23496;SDS011;11925;48.122;11.560;2022-12-29T06:20:46;1.52;;;0.60;;
23496;SDS011;11925;48.122;11.560;2022-12-29T06:23:16;1.60;;;0.90;;
23496;SDS011;11925;48.122;11.560;2022-12-29T06:25:46;1.25;;;0.63;;
23496;SDS011;11925;48.122;11.560;2022-12-29T06:28:15;3.35;;;0.70;;
23496;SDS011;11925;48.122;11.560;2022-12-29T06:30:45;1.17;;;0.73;;
23496;SDS011;11925;48.122;11.560;2022-12-29T06:33:15;3.15;;;0.90;;
23496;SDS011;11925;48.122;11.560;2022-12-29T06:35:44;2.08;;;0.60;;
23496;SDS011;11925;48.122;11.560;2022-12-29T06:38:13;1.98;;;0.80;;
23496;SDS011;11925;48.122;11.560;2022-12-29T06:40:42;1.40;;;0.70;;
23496;SDS011;11925;48.122;11.560;2022-12-29T06:43:30;0.93;;;0.63;;
23496;SDS011;11925;48.122;11.560;2022-12-29T06:46:20;1.20;;;0.70;;
23496;SDS011;11925;48.122;11.560;2022-12-29T06:48:50;1.33;;;0.75;;
23496;SDS011;11925;48.122;11.560;2022-12-29T06:51:19;1.17;;;0.57;;
23496;SDS011;11925;48.122;11.560;2022-12-29T06:53:47;1.00;;;0.68;;
23496;SDS011;11925;48.122;11.560;2022-12-29T06:56:16;1.58;;;0.70;;
23496;SDS011;11925;48.122;11.560;2022-12-29T06:58:44;1.63;;;0.93;;
23496;SDS011;11925;48.122;11.560;2022-12-29T07:01:13;1.23;;;0.80;;
23496;SDS011;11925;48.122;11.560;2022-12-29T07:03:42;3.47;;;1.05;;
23496;SDS011;11925;48.122;11.560;2022-12-29T07:06:11;2.03;;;0.75;;
23496;SDS011;11925;48.122;11.560;2022-12-29T07:08:40;1.52;;;0.68;;
23496;SDS011;11925;48.122;11.560;2022-12-29T07:11:08;1.95;;;0.70;;
23496;SDS011;11925;48.122;11.560;2022-12-29T07:13:37;1.65;;;0.90;;
23496;SDS011;11925;48.122;11.560;2022-12-29T07:16:06;1.70;;;0.70;;
23496;SDS011;11925;48.122;11.560;2022-12-29T07:18:35;2.60;;;0.90;;
23496;SDS011;11925;48.122;11.560;2022-12-29T07:21:04;1.42;;;0.70;;
23496;SDS011;11925;48.122;11.560;2022-12-29T07:23:34;1.77;;;0.70;;
23496;SDS011;11925;48.122;11.560;2022-12-29T07:26:03;2.38;;;0.70;;
23496;SDS011;11925;48.122;11.560;2022-12-29T07:28:33;1.42;;;0.70;;
23496;SDS011;11925;48.122;11.560;2022-12-29T07:31:04;2.25;;;0.80;;
23496;SDS011;11925;48.122;11.560;2022-12-29T07:33:33;1.40;;;0.73;;
23496;SDS011;11925;48.122;11.560;2022-12-29T07:36:01;4.68;;;0.75;;
23496;SDS011;11925;48.122;11.560;2022-12-29T07:38:30;1.63;;;0.88;;
23496;SDS011;11925;48.122;11.560;2022-12-29T07:41:00;3.45;;;0.85;;
23496;SDS011;11925;48.122;11.560;2022-12-29T07:43:28;1.50;;;0.70;;
23496;SDS011;11925;48.122;11.560;2022-12-29T07:46:32;2.20;;;1.05;;
23496;SDS011;11925;48.122;11.560;2022-12-29T07:49:20;1.67;;;0.70;;
23496;SDS011;11925;48.122;11.560;2022-12-29T07:51:49;1.48;;;0.77;;
23496;SDS011;11925;48.122;11.560;2022-12-29T07:54:18;2.38;;;0.90;;
23496;SDS011;11925;48.122;11.560;2022-12-29T07:56:48;1.30;;;0.70;;
23496;SDS011;11925;48.122;11.560;2022-12-29T07:59:16;2.72;;;0.90;;
23496;SDS011;11925;48.122;11.560;2022-12-29T08:01:45;1.60;;;0.82;;
23496;SDS011;11925;48.122;11.560;2022-12-29T08:04:13;1.63;;;0.98;;
23496;SDS011;11925;48.122;11.560;2022-12-29T08:06:42;1.20;;;0.70;;
23496;SDS011;11925;48.122;11.560;2022-12-29T08:09:11;1.40;;;0.68;;
23496;SDS011;11925;48.122;11.560;2022-12-29T08:11:49;3.00;;;0.80;;
23496;SDS011;11925;48.122;11.560;2022-12-29T08:14:18;2.05;;;0.75;;
23496;SDS011;11925;48.122;11.560;2022-12-29T08:16:46;1.33;;;0.70;;
23496;SDS011;11925;48.122;11.560;2022-12-29T08:19:15;1.00;;;0.70;;
23496;SDS011;11925;48.122;11.560;2022-12-29T08:21:43;2.35;;;0.80;;
23496;SDS011;11925;48.122;11.560;2022-12-29T08:24:12;2.63;;;0.73;;
23496;SDS011;11925;48.122;11.560;2022-12-29T08:26:40;0.93;;;0.65;;
23496;SDS011;11925;48.122;11.560;2022-12-29T08:29:10;1.35;;;0.80;;
23496;SDS011;11925;48.122;11.560;2022-12-29T08:31:39;3.42;;;0.90;;
23496;SDS011;11925;48.122;11.560;2022-12-29T08:34:07;1.40;;;0.80;;
23496;SDS011;11925;48.122;11.560;2022-12-29T08:36:36;1.00;;;0.50;;
23496;SDS011;11925;48.122;11.560;2022-12-29T08:39:04;1.95;;;0.82;;
23496;SDS011;11925;48.122;11.560;2022-12-29T08:41:33;1.67;;;0.80;;
23496;SDS011;11925;48.122;11.560;2022-12-29T08:44:01;1.98;;;0.90;;
23496;SDS011;11925;48.122;11.560;2022-12-29T08:46:31;2.00;;;0.90;;
23496;SDS011;11925;48.122;11.560;2022-12-29T08:49:00;2.63;;;0.90;;
23496;SDS011;11925;48.122;11.560;2022-12-29T08:51:28;1.80;;;0.93;;
23496;SDS011;11925;48.122;11.560;2022-12-29T08:53:57;1.10;;;0.80;;
23496;SDS011;11925;48.122;11.560;2022-12-29T08:56:26;2.67;;;0.98;;
23496;SDS011;11925;48.122;11.560;2022-12-29T08:58:56;1.35;;;0.77;;
23496;SDS011;11925;48.122;11.560;2022-12-29T09:01:28;1.67;;;0.88;;
23496;SDS011;11925;48.122;11.560;2022-12-29T09:03:59;1.70;;;0.75;;
23496;SDS011;11925;48.122;11.560;2022-12-29T09:06:43;1.38;;;0.73;;
23496;SDS011;11925;48.122;11.560;2022-12-29T09:09:12;2.80;;;0.70;;
23496;SDS011;11925;48.122;11.560;2022-12-29T09:11:41;3.65;;;0.80;;
23496;SDS011;11925;48.122;11.560;2022-12-29T09:14:10;2.75;;;0.80;;
23496;SDS011;11925;48.122;11.560;2022-12-29T09:16:39;1.20;;;0.80;;
23496;SDS011;11925;48.122;11.560;2022-12-29T09:19:26;1.35;;;0.77;;
23496;SDS011;11925;48.122;11.560;2022-12-29T09:21:55;3.05;;;0.75;;
23496;SDS011;11925;48.122;11.560;2022-12-29T09:24:23;2.30;;;1.00;;
23496;SDS011;11925;48.122;11.560;2022-12-29T09:26:52;1.40;;;0.80;;
23496;SDS011;11925;48.122;11.560;2022-12-29T09:29:20;1.73;;;0.80;;
23496;SDS011;11925;48.122;11.560;2022-12-29T09:31:49;3.72;;;0.88;;
23496;SDS011;11925;48.122;11.560;2022-12-29T09:34:18;2.20;;;1.05;;
23496;SDS011;11925;48.122;11.560;2022-12-29T09:36:48;2.40;;;1.05;;
23496;SDS011;11925;48.122;11.560;2022-12-29T09:39:16;2.00;;;1.08;;
23496;SDS011;11925;48.122;11.560;2022-12-29T09:41:46;1.85;;;0.90;;
23496;SDS011;11925;48.122;11.560;2022-12-29T09:44:20;2.90;;;0.80;;
23496;SDS011;11925;48.122;11.560;2022-12-29T09:46:53;3.55;;;0.90;;
23496;SDS011;11925;48.122;11.560;2022-12-29T09:49:25;2.17;;;0.90;;
23496;SDS011;11925;48.122;11.560;2022-12-29T09:52:01;1.38;;;0.80;;
23496;SDS011;11925;48.122;11.560;2022-12-29T09:54:37;2.30;;;0.93;;
23496;SDS011;11925;48.122;11.560;2022-12-29T09:57:11;2.35;;;0.90;;
23496;SDS011;11925;48.122;11.560;2022-12-29T09:59:43;1.23;;;0.60;;
23496;SDS011;11925;48.122;11.560;2022-12-29T10:04:59;2.17;;;1.00;;
23496;SDS011;11925;48.122;11.560;2022-12-29T10:07:38;2.50;;;1.13;;
23496;SDS011;11925;48.122;11.560;2022-12-29T10:10:16;2.03;;;1.02;;
23496;SDS011;11925;48.122;11.560;2022-12-29T10:13:00;2.65;;;0.90;;
23496;SDS011;11925;48.122;11.560;2022-12-29T10:15:46;3.45;;;0.95;;
23496;SDS011;11925;48.122;11.560;2022-12-29T10:18:32;2.97;;;0.80;;
23496;SDS011;11925;48.122;11.560;2022-12-29T10:21:17;5.30;;;1.10;;
23496;SDS011;11925;48.122;11.560;2022-12-29T10:23:56;2.92;;;0.90;;
23496;SDS011;11925;48.122;11.560;2022-12-29T10:26:31;2.22;;;0.90;;
23496;SDS011;11925;48.122;11.560;2022-12-29T10:29:04;3.40;;;0.70;;
23496;SDS011;11925;48.122;11.560;2022-12-29T10:31:35;2.00;;;0.80;;
23496;SDS011;11925;48.122;11.560;2022-12-29T10:34:10;5.80;;;1.48;;
23496;SDS011;11925;48.122;11.560;2022-12-29T10:36:49;5.15;;;1.30;;
23496;SDS011;11925;48.122;11.560;2022-12-29T10:39:25;1.73;;;0.90;;
23496;SDS011;11925;48.122;11.560;2022-12-29T10:42:01;2.45;;;0.70;;
23496;SDS011;11925;48.122;11.560;2022-12-29T10:44:37;1.48;;;0.95;;
23496;SDS011;11925;48.122;11.560;2022-12-29T10:47:08;2.42;;;0.90;;
23496;SDS011;11925;48.122;11.560;2022-12-29T10:49:40;2.05;;;0.82;;
23496;SDS011;11925;48.122;11.560;2022-12-29T10:52:10;2.13;;;1.20;;
23496;SDS011;11925;48.122;11.560;2022-12-29T10:54:44;3.08;;;0.95;;
23496;SDS011;11925;48.122;11.560;2022-12-29T10:57:20;1.65;;;0.82;;
23496;SDS011;11925;48.122;11.560;2022-12-29T10:59:54;2.40;;;1.00;;
23496;SDS011;11925;48.122;11.560;2022-12-29T11:02:26;3.10;;;1.02;;
23496;SDS011;11925;48.122;11.560;2022-12-29T11:05:16;2.30;;;1.80;;
23496;SDS011;11925;48.122;11.560;2022-12-29T11:07:50;4.43;;;2.03;;
23496;SDS011;11925;48.122;11.560;2022-12-29T11:10:30;3.03;;;1.60;;
23496;SDS011;11925;48.122;11.560;2022-12-29T11:13:04;1.60;;;1.10;;
23496;SDS011;11925;48.122;11.560;2022-12-29T11:15:39;2.60;;;1.10;;
23496;SDS011;11925;48.122;11.560;2022-12-29T11:18:22;2.30;;;1.17;;
23496;SDS011;11925;48.122;11.560;2022-12-29T11:20:52;3.40;;;1.50;;
23496;SDS011;11925;48.122;11.560;2022-12-29T11:23:23;2.35;;;1.50;;
23496;SDS011;11925;48.122;11.560;2022-12-29T11:26:13;2.25;;;1.48;;
23496;SDS011;11925;48.122;11.560;2022-12-29T11:28:44;1.90;;;1.23;;
23496;SDS011;11925;48.122;11.560;2022-12-29T11:31:17;2.20;;;1.30;;
23496;SDS011;11925;48.122;11.560;2022-12-29T11:33:49;3.65;;;0.80;;
23496;SDS011;11925;48.122;11.560;2022-12-29T11:36:19;1.98;;;1.02;;
23496;SDS011;11925;48.122;11.560;2022-12-29T11:38:49;4.65;;;1.08;;
23496;SDS011;11925;48.122;11.560;2022-12-29T11:41:21;2.40;;;0.98;;
23496;SDS011;11925;48.122;11.560;2022-12-29T11:46:21;3.33;;;1.20;;
23496;SDS011;11925;48.122;11.560;2022-12-29T11:48:52;3.08;;;1.05;;
23496;SDS011;11925;48.122;11.560;2022-12-29T11:51:25;1.98;;;0.88;;
23496;SDS011;11925;48.122;11.560;2022-12-29T11:53:56;2.50;;;1.08;;
23496;SDS011;11925;48.122;11.560;2022-12-29T11:56:34;3.92;;;1.00;;
23496;SDS011;11925;48.122;11.560;2022-12-29T12:05:20;3.20;;;1.10;;
23496;SDS011;11925;48.122;11.560;2022-12-29T12:07:56;1.83;;;1.10;;
23496;SDS011;11925;48.122;11.560;2022-12-29T12:10:32;2.80;;;1.13;;
23496;SDS011;11925;48.122;11.560;2022-12-29T12:13:08;2.13;;;0.95;;
23496;SDS011;11925;48.122;11.560;2022-12-29T12:15:47;2.15;;;0.75;;
23496;SDS011;11925;48.122;11.560;2022-12-29T12:18:30;3.33;;;1.17;;
23496;SDS011;11925;48.122;11.560;2022-12-29T12:21:05;2.05;;;1.10;;
23496;SDS011;11925;48.122;11.560;2022-12-29T12:23:50;2.20;;;1.20;;
23496;SDS011;11925;48.122;11.560;2022-12-29T12:26:28;4.93;;;1.60;;
23496;SDS011;11925;48.122;11.560;2022-12-29T12:29:07;6.80;;;2.55;;
23496;SDS011;11925;48.122;11.560;2022-12-29T12:31:41;5.53;;;2.92;;
23496;SDS011;11925;48.122;11.560;2022-12-29T12:34:15;4.93;;;2.35;;
23496;SDS011;11925;48.122;11.560;2022-12-29T12:36:55;5.32;;;2.05;;
23496;SDS011;11925;48.122;11.560;2022-12-29T12:39:33;3.25;;;1.65;;
23496;SDS011;11925;48.122;11.560;2022-12-29T12:42:13;2.80;;;1.65;;
23496;SDS011;11925;48.122;11.560;2022-12-29T12:44:56;2.40;;;1.50;;
23496;SDS011;11925;48.122;11.560;2022-12-29T12:47:43;7.03;;;1.92;;
23496;SDS011;11925;48.122;11.560;2022-12-29T12:50:32;5.72;;;2.10;;
23496;SDS011;11925;48.122;11.560;2022-12-29T12:53:26;3.15;;;1.75;;
23496;SDS011;11925;48.122;11.560;2022-12-29T12:56:25;2.25;;;1.55;;
23496;SDS011;11925;48.122;11.560;2022-12-29T12:59:07;3.63;;;2.00;;
23496;SDS011;11925;48.122;11.560;2022-12-29T13:01:48;4.22;;;2.20;;
23496;SDS011;11925;48.122;11.560;2022-12-29T13:04:38;4.07;;;1.50;;
23496;SDS011;11925;48.122;11.560;2022-12-29T13:07:28;3.92;;;2.08;;
23496;SDS011;11925;48.122;11.560;2022-12-29T13:13:22;5.20;;;1.80;;
23496;SDS011;11925;48.122;11.560;2022-12-29T13:16:06;3.80;;;1.90;;
23496;SDS011;11925;48.122;11.560;2022-12-29T13:18:46;6.13;;;1.75;;
23496;SDS011;11925;48.122;11.560;2022-12-29T13:21:21;3.03;;;1.60;;
23496;SDS011;11925;48.122;11.560;2022-12-29T13:24:01;4.47;;;1.45;;
23496;SDS011;11925;48.122;11.560;2022-12-29T13:26:37;2.75;;;1.63;;
23496;SDS011;11925;48.122;11.560;2022-12-29T13:29:12;5.88;;;1.50;;
23496;SDS011;11925;48.122;11.560;2022-12-29T13:31:47;3.03;;;1.63;;
23496;SDS011;11925;48.122;11.560;2022-12-29T13:34:24;4.43;;;1.52;;
23496;SDS011;11925;48.122;11.560;2022-12-29T13:36:58;2.70;;;1.30;;
23496;SDS011;11925;48.122;11.560;2022-12-29T13:41:59;6.88;;;1.58;;
23496;SDS011;11925;48.122;11.560;2022-12-29T13:44:31;5.55;;;1.05;;
23496;SDS011;11925;48.122;11.560;2022-12-29T13:47:04;2.05;;;1.00;;
23496;SDS011;11925;48.122;11.560;2022-12-29T13:49:43;3.60;;;1.25;;
23496;SDS011;11925;48.122;11.560;2022-12-29T13:52:13;1.50;;;0.90;;
23496;SDS011;11925;48.122;11.560;2022-12-29T13:54:52;5.95;;;1.20;;
23496;SDS011;11925;48.122;11.560;2022-12-29T13:57:30;3.67;;;1.10;;
23496;SDS011;11925;48.122;11.560;2022-12-29T14:00:11;4.07;;;1.40;;
23496;SDS011;11925;48.122;11.560;2022-12-29T14:02:42;2.00;;;1.38;;
23496;SDS011;11925;48.122;11.560;2022-12-29T14:05:27;4.40;;;1.08;;
23496;SDS011;11925;48.122;11.560;2022-12-29T14:07:57;2.40;;;1.15;;
23496;SDS011;11925;48.122;11.560;2022-12-29T14:10:27;2.60;;;1.10;;
23496;SDS011;11925;48.122;11.560;2022-12-29T14:13:00;3.40;;;1.08;;
23496;SDS011;11925;48.122;11.560;2022-12-29T14:15:30;2.00;;;1.20;;
23496;SDS011;11925;48.122;11.560;2022-12-29T14:18:02;3.40;;;1.30;;
23496;SDS011;11925;48.122;11.560;2022-12-29T14:20:38;3.63;;;1.20;;
23496;SDS011;11925;48.122;11.560;2022-12-29T14:23:24;3.28;;;1.48;;
23496;SDS011;11925;48.122;11.560;2022-12-29T14:25:57;2.08;;;1.13;;
23496;SDS011;11925;48.122;11.560;2022-12-29T14:28:26;2.78;;;1.40;;
23496;SDS011;11925;48.122;11.560;2022-12-29T14:30:55;2.40;;;1.30;;
23496;SDS011;11925;48.122;11.560;2022-12-29T14:33:25;3.42;;;1.48;;
23496;SDS011;11925;48.122;11.560;2022-12-29T14:35:56;2.55;;;1.20;;
23496;SDS011;11925;48.122;11.560;2022-12-29T14:38:26;4.95;;;1.70;;
23496;SDS011;11925;48.122;11.560;2022-12-29T14:41:16;9.70;;;1.88;;
23496;SDS011;11925;48.122;11.560;2022-12-29T14:43:52;3.30;;;1.38;;
23496;SDS011;11925;48.122;11.560;2022-12-29T14:46:23;3.30;;;1.33;;
23496;SDS011;11925;48.122;11.560;2022-12-29T14:48:56;3.38;;;1.50;;
23496;SDS011;11925;48.122;11.560;2022-12-29T14:51:30;2.83;;;1.20;;
23496;SDS011;11925;48.122;11.560;2022-12-29T14:57:04;2.53;;;1.23;;
23496;SDS011;11925;48.122;11.560;2022-12-29T14:59:36;2.78;;;1.33;;
23496;SDS011;11925;48.122;11.560;2022-12-29T15:02:13;3.10;;;1.30;;
23496;SDS011;11925;48.122;11.560;2022-12-29T15:04:46;3.20;;;1.38;;
23496;SDS011;11925;48.122;11.560;2022-12-29T15:07:16;2.65;;;1.17;;
23496;SDS011;11925;48.122;11.560;2022-12-29T15:09:47;3.10;;;1.50;;
23496;SDS011;11925;48.122;11.560;2022-12-29T15:12:25;3.25;;;1.45;;
23496;SDS011;11925;48.122;11.560;2022-12-29T15:15:00;2.38;;;1.40;;
23496;SDS011;11925;48.122;11.560;2022-12-29T15:17:29;3.15;;;1.75;;
23496;SDS011;11925;48.122;11.560;2022-12-29T15:22:42;2.42;;;1.20;;
23496;SDS011;11925;48.122;11.560;2022-12-29T15:25:13;4.47;;;1.42;;
23496;SDS011;11925;48.122;11.560;2022-12-29T15:27:48;3.40;;;1.65;;
23496;SDS011;11925;48.122;11.560;2022-12-29T15:30:17;2.35;;;1.38;;
23496;SDS011;11925;48.122;11.560;2022-12-29T15:32:50;2.85;;;1.42;;
23496;SDS011;11925;48.122;11.560;2022-12-29T15:35:23;3.13;;;1.42;;
23496;SDS011;11925;48.122;11.560;2022-12-29T15:37:56;3.70;;;1.42;;
23496;SDS011;11925;48.122;11.560;2022-12-29T15:40:26;2.70;;;1.40;;
23496;SDS011;11925;48.122;11.560;2022-12-29T15:42:58;3.53;;;1.70;;
23496;SDS011;11925;48.122;11.560;2022-12-29T15:46:00;3.17;;;1.50;;
23496;SDS011;11925;48.122;11.560;2022-12-29T15:48:29;4.07;;;1.48;;